createdAt,value
2022-12-27T00:01:32.369Z,25.27
2022-12-27T00:03:58.976Z,21.63
2022-12-27T00:06:26.843Z,22.43
2022-12-27T00:08:54.625Z,24.47
2022-12-27T00:11:24.853Z,26.57
2022-12-27T00:13:52.016Z,26.93
2022-12-27T00:16:20.708Z,34.40
2022-12-27T00:18:49.177Z,26.90
2022-12-27T00:21:16.724Z,28.37
2022-12-27T00:23:46.496Z,32.30
2022-12-27T00:26:22.190Z,26.37
2022-12-27T00:28:49.632Z,27.83
2022-12-27T00:31:17.422Z,32.23
2022-12-27T00:33:45.737Z,26.40
2022-12-27T00:36:17.051Z,24.73
2022-12-27T00:38:44.247Z,20.80
2022-12-27T00:41:11.276Z,23.73
2022-12-27T00:43:37.880Z,26.47
2022-12-27T00:46:05.046Z,29.73
2022-12-27T00:48:31.848Z,34.17
2022-12-27T00:51:00.177Z,28.07
2022-12-27T00:53:28.040Z,28.37
2022-12-27T00:55:54.952Z,26.80
2022-12-27T00:58:21.752Z,26.80
2022-12-27T01:00:49.212Z,25.40
2022-12-27T01:03:17.036Z,24.83
2022-12-27T01:05:44.323Z,29.17
2022-12-27T01:08:11.385Z,24.53
2022-12-27T01:10:40.311Z,27.97
2022-12-27T01:13:06.991Z,27.53
2022-12-27T01:15:33.575Z,27.10
2022-12-27T01:18:00.186Z,29.97
2022-12-27T01:20:26.803Z,28.53
2022-12-27T01:22:54.639Z,27.43
2022-12-27T01:25:21.265Z,32.00
2022-12-27T01:27:47.908Z,26.67
2022-12-27T01:30:14.564Z,23.10
2022-12-27T01:32:41.196Z,28.27
2022-12-27T01:35:08.187Z,30.87
2022-12-27T01:37:34.788Z,27.50
2022-12-27T01:40:01.488Z,33.73
2022-12-27T01:42:46.665Z,29.60
2022-12-27T01:45:17.591Z,31.97
2022-12-27T01:47:50.143Z,29.77
2022-12-27T01:50:31.692Z,28.77
2022-12-27T01:53:04.174Z,29.57
2022-12-27T01:55:39.452Z,28.60
2022-12-27T01:58:14.028Z,31.27
2022-12-27T02:00:43.969Z,26.97
2022-12-27T02:03:12.212Z,26.30
2022-12-27T02:05:41.882Z,24.87
2022-12-27T02:08:24.186Z,30.77
2022-12-27T02:10:51.313Z,31.27
2022-12-27T02:13:19.154Z,35.17
2022-12-27T02:15:45.930Z,30.13
2022-12-27T02:18:12.532Z,32.87
2022-12-27T02:21:11.167Z,35.20
2022-12-27T02:24:06.807Z,30.70
2022-12-27T02:26:46.781Z,28.50
2022-12-27T02:29:18.464Z,31.10
2022-12-27T02:32:07.439Z,27.17
2022-12-27T02:34:49.371Z,27.50
2022-12-27T02:37:16.018Z,30.20
2022-12-27T02:39:46.766Z,20.93
2022-12-27T02:42:35.391Z,12.17
2022-12-27T02:45:21.430Z,11.33
2022-12-27T02:48:07.332Z,12.90
2022-12-27T02:51:11.709Z,6.40
2022-12-27T02:53:55.429Z,5.43
2022-12-27T02:57:10.896Z,10.37
2022-12-27T03:00:16.142Z,10.27
2022-12-27T03:03:15.839Z,4.33
2022-12-27T03:06:14.231Z,7.63
2022-12-27T03:08:53.815Z,12.80
2022-12-27T03:11:39.302Z,12.40
2022-12-27T03:14:36.975Z,14.73
2022-12-27T03:17:10.893Z,13.90
2022-12-27T03:20:04.604Z,15.47
2022-12-27T03:22:50.971Z,17.17
2022-12-27T03:25:30.236Z,15.10
2022-12-27T03:28:38.845Z,17.87
2022-12-27T03:31:36.042Z,19.47
2022-12-27T03:34:26.533Z,20.73
2022-12-27T03:37:13.495Z,25.00
2022-12-27T03:39:44.108Z,29.07
2022-12-27T03:42:37.233Z,24.93
2022-12-27T03:45:04.193Z,21.37
2022-12-27T03:47:49.001Z,24.13
2022-12-27T03:50:22.490Z,23.40
2022-12-27T03:52:57.713Z,25.23
2022-12-27T03:55:29.974Z,28.67
2022-12-27T03:57:59.773Z,28.93
2022-12-27T04:00:26.398Z,30.57
2022-12-27T04:02:53.104Z,34.73
2022-12-27T04:05:19.827Z,29.17
2022-12-27T04:08:04.966Z,30.50
2022-12-27T04:10:50.232Z,35.83
2022-12-27T04:13:35.388Z,30.93
2022-12-27T04:16:20.940Z,29.73
2022-12-27T04:19:06.099Z,30.87
2022-12-27T04:21:50.954Z,21.70
2022-12-27T04:24:36.030Z,18.03
2022-12-27T04:27:21.085Z,13.97
2022-12-27T04:30:06.224Z,14.00
2022-12-27T04:32:51.090Z,14.30
2022-12-27T04:35:17.729Z,12.73
2022-12-27T04:37:44.349Z,15.23
2022-12-27T04:40:30.005Z,13.33
2022-12-27T04:43:15.107Z,16.33
2022-12-27T04:46:00.075Z,14.27
2022-12-27T04:48:46.604Z,14.67
2022-12-27T04:51:31.738Z,14.63
2022-12-27T04:54:16.771Z,14.40
2022-12-27T04:56:43.346Z,15.10
2022-12-27T04:59:28.243Z,19.03
2022-12-27T05:02:04.033Z,16.33
2022-12-27T05:04:37.037Z,22.57
2022-12-27T05:07:25.727Z,32.43
2022-12-27T05:10:10.966Z,26.83
2022-12-27T05:12:56.250Z,25.07
2022-12-27T05:15:22.840Z,25.53
2022-12-27T05:17:49.438Z,27.87
2022-12-27T05:20:16.075Z,22.70
2022-12-27T05:23:01.329Z,25.03
2022-12-27T05:25:39.850Z,28.93
2022-12-27T05:28:08.916Z,28.07
2022-12-27T05:30:40.919Z,26.03
2022-12-27T05:33:08.099Z,24.83
2022-12-27T05:35:35.131Z,49.83
2022-12-27T05:38:02.445Z,31.13
2022-12-27T05:40:29.474Z,19.70
2022-12-27T05:42:58.853Z,17.33
2022-12-27T05:45:25.516Z,26.67
2022-12-27T05:47:53.113Z,39.23
2022-12-27T05:50:19.974Z,59.57
2022-12-27T05:52:46.653Z,36.10
2022-12-27T05:55:13.247Z,28.33
2022-12-27T05:57:39.877Z,33.93
2022-12-27T06:00:07.130Z,29.67
2022-12-27T06:02:33.837Z,33.23
2022-12-27T06:05:00.498Z,27.63
2022-12-27T06:07:27.141Z,30.03
2022-12-27T06:09:53.774Z,29.53
2022-12-27T06:12:20.357Z,34.47
2022-12-27T06:14:46.958Z,26.67
2022-12-27T06:17:13.615Z,152.27
2022-12-27T06:19:40.186Z,51.53
2022-12-27T06:22:06.801Z,33.20
2022-12-27T06:24:33.388Z,35.50
2022-12-27T06:27:00.034Z,38.63
2022-12-27T06:29:26.607Z,28.37
2022-12-27T06:31:53.197Z,23.53
2022-12-27T06:34:19.823Z,30.90
2022-12-27T06:36:50.305Z,36.90
2022-12-27T06:39:20.214Z,33.27
2022-12-27T06:41:46.859Z,37.50
2022-12-27T06:44:13.427Z,33.80
2022-12-27T06:46:40.058Z,35.10
2022-12-27T06:49:06.671Z,26.77
2022-12-27T06:51:33.968Z,14.20
2022-12-27T06:54:00.598Z,10.17
2022-12-27T06:56:27.244Z,34.40
2022-12-27T06:58:54.673Z,30.00
2022-12-27T07:01:22.477Z,32.93
2022-12-27T07:03:50.762Z,32.10
2022-12-27T07:06:17.663Z,29.30
2022-12-27T07:08:44.285Z,23.50
2022-12-27T07:11:12.573Z,19.73
2022-12-27T07:13:42.745Z,22.43
2022-12-27T07:16:11.792Z,10.60
2022-12-27T07:18:38.642Z,6.53
2022-12-27T07:21:10.139Z,5.83
2022-12-27T07:23:37.291Z,6.50
2022-12-27T07:26:09.505Z,12.77
2022-12-27T07:28:36.353Z,8.33
2022-12-27T07:31:23.454Z,10.33
2022-12-27T07:33:50.689Z,14.63
2022-12-27T07:36:19.355Z,14.40
2022-12-27T07:38:45.997Z,29.80
2022-12-27T07:41:13.472Z,37.83
2022-12-27T07:43:40.333Z,23.43
2022-12-27T07:46:10.311Z,19.77
2022-12-27T07:48:37.565Z,25.40
2022-12-27T07:51:04.856Z,21.83
2022-12-27T07:53:31.978Z,24.80
2022-12-27T07:55:58.745Z,21.33
2022-12-27T07:58:25.723Z,22.87
2022-12-27T08:00:52.697Z,22.70
2022-12-27T08:03:19.458Z,22.90
2022-12-27T08:05:52.717Z,25.23
2022-12-27T08:08:21.837Z,35.57
2022-12-27T08:10:48.773Z,40.43
2022-12-27T08:13:15.409Z,32.50
2022-12-27T08:15:43.026Z,38.70
2022-12-27T08:18:10.078Z,24.20
2022-12-27T08:20:36.956Z,24.27
2022-12-27T08:23:03.949Z,32.63
2022-12-27T08:25:30.518Z,42.27
2022-12-27T08:28:08.624Z,24.07
2022-12-27T08:30:35.283Z,33.33
2022-12-27T08:33:02.882Z,10.03
2022-12-27T08:38:16.588Z,6.63
2022-12-27T08:40:44.586Z,4.63
2022-12-27T08:43:12.003Z,3.57
2022-12-27T08:45:39.720Z,3.40
2022-12-27T08:48:07.164Z,5.70
2022-12-27T08:50:34.294Z,4.93
2022-12-27T08:53:04.702Z,4.27
2022-12-27T08:55:32.320Z,6.07
2022-12-27T08:58:00.255Z,5.40
2022-12-27T09:00:27.512Z,5.47
2022-12-27T09:02:54.712Z,4.00
2022-12-27T09:05:22.698Z,4.87
2022-12-27T09:07:49.477Z,3.10
2022-12-27T09:10:16.574Z,4.47
2022-12-27T09:12:43.197Z,8.07
2022-12-27T09:15:10.157Z,3.93
2022-12-27T09:17:36.852Z,7.43
2022-12-27T09:20:04.661Z,6.10
2022-12-27T09:22:31.404Z,6.13
2022-12-27T09:24:58.186Z,5.23
2022-12-27T09:27:24.885Z,2.70
2022-12-27T09:29:52.192Z,4.47
2022-12-27T09:32:18.872Z,5.07
2022-12-27T09:34:45.568Z,5.07
2022-12-27T09:37:12.123Z,5.03
2022-12-27T09:39:38.784Z,4.00
2022-12-27T09:45:24.963Z,6.17
2022-12-27T09:48:01.618Z,8.03
2022-12-27T09:50:33.611Z,7.33
2022-12-27T09:53:07.566Z,4.30
2022-12-27T09:55:34.207Z,6.73
2022-12-27T09:58:28.518Z,4.57
2022-12-27T10:00:55.194Z,5.23
2022-12-27T10:03:25.770Z,9.43
2022-12-27T10:06:24.659Z,7.73
2022-12-27T10:09:04.487Z,5.57
2022-12-27T10:11:55.458Z,7.27
2022-12-27T10:14:47.148Z,5.63
2022-12-27T10:17:32.645Z,5.00
2022-12-27T10:20:17.570Z,5.60
2022-12-27T10:22:49.769Z,7.33
2022-12-27T10:25:20.257Z,6.83
2022-12-27T10:27:47.518Z,8.20
2022-12-27T10:30:22.583Z,10.63
2022-12-27T10:32:49.879Z,12.70
2022-12-27T10:35:18.966Z,11.07
2022-12-27T10:37:46.901Z,6.93
2022-12-27T10:40:21.263Z,6.70
2022-12-27T10:43:03.371Z,10.00
2022-12-27T10:45:36.536Z,6.37
2022-12-27T10:48:12.197Z,6.17
2022-12-27T10:50:39.130Z,9.37
2022-12-27T10:53:05.705Z,8.33
2022-12-27T10:55:37.848Z,7.07
2022-12-27T10:58:31.700Z,9.30
2022-12-27T11:00:58.506Z,12.20
2022-12-27T11:03:26.346Z,11.63
2022-12-27T11:06:04.409Z,9.70
2022-12-27T11:08:31.104Z,6.30
2022-12-27T11:11:15.907Z,12.20
2022-12-27T11:13:42.722Z,6.87
2022-12-27T11:16:35.718Z,5.00
2022-12-27T11:19:03.442Z,8.33
2022-12-27T11:21:30.657Z,19.00
2022-12-27T11:24:00.262Z,5.93
2022-12-27T11:26:30.051Z,19.53
2022-12-27T11:29:01.194Z,12.80
2022-12-27T11:31:36.712Z,7.33
2022-12-27T11:34:16.137Z,4.53
2022-12-27T11:36:46.245Z,4.80
2022-12-27T11:39:52.090Z,5.60
2022-12-27T11:42:21.572Z,4.80
2022-12-27T11:45:23.138Z,4.83
2022-12-27T11:47:55.920Z,7.30
2022-12-27T11:50:28.487Z,6.17
2022-12-27T11:53:13.719Z,4.07
2022-12-27T11:55:53.382Z,5.93
2022-12-27T11:58:38.272Z,4.83
2022-12-27T12:01:14.044Z,4.60
2022-12-27T12:03:40.605Z,4.20
2022-12-27T12:06:13.263Z,5.70
2022-12-27T12:09:09.292Z,4.28
2022-12-27T12:11:55.139Z,4.10
2022-12-27T12:14:50.833Z,5.20
2022-12-27T12:17:43.360Z,4.60
2022-12-27T12:20:51.327Z,7.23
2022-12-27T12:23:55.449Z,8.70
2022-12-27T12:26:24.472Z,5.63
2022-12-27T12:29:13.255Z,8.03
2022-12-27T12:32:27.447Z,3.97
2022-12-27T12:35:07.593Z,6.10
2022-12-27T12:37:37.243Z,4.63
2022-12-27T12:40:03.767Z,7.00
2022-12-27T12:42:39.633Z,5.77
2022-12-27T12:45:39.059Z,6.67
2022-12-27T12:48:34.947Z,7.20
2022-12-27T12:51:26.366Z,6.40
2022-12-27T12:54:22.404Z,6.57
2022-12-27T12:57:04.045Z,6.27
2022-12-27T13:00:09.307Z,6.13
2022-12-27T13:02:54.520Z,7.93
2022-12-27T13:05:33.705Z,5.73
2022-12-27T13:08:24.512Z,6.37
2022-12-27T13:10:51.170Z,5.90
2022-12-27T13:13:35.805Z,6.17
2022-12-27T13:16:13.245Z,6.13
2022-12-27T13:18:51.993Z,6.10
2022-12-27T13:21:40.546Z,6.83
2022-12-27T13:24:29.988Z,6.30
2022-12-27T13:27:20.888Z,5.53
2022-12-27T13:30:06.714Z,7.00
2022-12-27T13:32:52.642Z,7.27
2022-12-27T13:35:58.225Z,8.17
2022-12-27T13:38:42.885Z,6.97
2022-12-27T13:41:39.672Z,6.00
2022-12-27T13:44:21.639Z,7.53
2022-12-27T13:47:05.129Z,6.87
2022-12-27T13:49:59.636Z,4.83
2022-12-27T13:52:35.483Z,7.17
2022-12-27T13:55:20.799Z,6.73
2022-12-27T13:58:02.528Z,8.13
2022-12-27T14:00:34.359Z,8.30
2022-12-27T14:03:16.122Z,6.43
2022-12-27T14:06:03.296Z,9.73
2022-12-27T14:08:58.290Z,12.77
2022-12-27T14:11:46.545Z,8.57
2022-12-27T14:14:16.712Z,4.53
2022-12-27T14:17:17.099Z,4.80
2022-12-27T14:20:11.514Z,6.73
2022-12-27T14:23:17.861Z,5.13
2022-12-27T14:25:53.134Z,4.17
2022-12-27T14:28:21.695Z,3.53
2022-12-27T14:31:14.363Z,8.00
2022-12-27T14:34:27.436Z,3.83
2022-12-27T14:37:19.188Z,6.97
2022-12-27T14:40:13.298Z,4.93
2022-12-27T14:42:45.876Z,4.37
2022-12-27T14:45:20.181Z,3.97
2022-12-27T14:48:18.597Z,5.30
2022-12-27T14:51:50.385Z,4.87
2022-12-27T14:54:37.894Z,4.77
2022-12-27T14:57:33.790Z,7.80
2022-12-27T15:00:19.038Z,10.33
2022-12-27T15:02:48.946Z,6.33
2022-12-27T15:05:39.816Z,5.90
2022-12-27T15:08:22.765Z,3.57
2022-12-27T15:11:06.166Z,3.97
2022-12-27T15:13:45.999Z,4.37
2022-12-27T15:16:16.862Z,4.27
2022-12-27T15:19:28.133Z,7.83
2022-12-27T15:22:08.058Z,5.67
2022-12-27T15:24:52.564Z,5.10
2022-12-27T15:27:32.766Z,5.90
2022-12-27T15:30:05.720Z,6.40
2022-12-27T15:32:53.280Z,5.87
2022-12-27T15:35:39.041Z,5.87
2022-12-27T15:38:42.549Z,7.20
2022-12-27T15:41:09.237Z,4.53
2022-12-27T15:43:38.777Z,3.60
2022-12-27T15:46:08.181Z,3.67
2022-12-27T15:48:53.877Z,4.50
2022-12-27T15:51:35.014Z,4.87
2022-12-27T15:54:26.271Z,4.70
2022-12-27T15:57:35.558Z,4.30
2022-12-27T16:00:09.435Z,4.23
2022-12-27T16:02:49.526Z,8.23
2022-12-27T16:05:19.292Z,8.13
2022-12-27T16:08:01.279Z,4.13
2022-12-27T16:10:34.238Z,11.47
2022-12-27T16:13:09.744Z,22.37
2022-12-27T16:15:47.963Z,12.07
2022-12-27T16:18:23.603Z,32.63
2022-12-27T16:21:09.475Z,4.23
2022-12-27T16:23:39.014Z,5.87
2022-12-27T16:26:25.648Z,5.60
2022-12-27T16:29:12.460Z,3.57
2022-12-27T16:31:45.595Z,4.97
2022-12-27T16:34:28.663Z,4.27
2022-12-27T16:36:57.744Z,2.63
2022-12-27T16:39:34.082Z,4.20
2022-12-27T16:42:03.201Z,3.23
2022-12-27T16:44:52.284Z,2.60
2022-12-27T16:47:43.941Z,4.43
2022-12-27T16:50:35.973Z,2.90
2022-12-27T16:53:38.558Z,4.20
2022-12-27T16:56:17.326Z,5.03
2022-12-27T16:58:44.299Z,5.97
2022-12-27T17:01:26.546Z,17.83
2022-12-27T17:03:54.656Z,8.00
2022-12-27T17:06:36.738Z,4.37
2022-12-27T17:09:06.416Z,4.57
2022-12-27T17:11:35.197Z,4.43
2022-12-27T17:14:16.767Z,3.60
2022-12-27T17:16:48.514Z,42.70
2022-12-27T17:19:21.546Z,15.50
2022-12-27T17:21:55.580Z,4.60
2022-12-27T17:24:23.419Z,3.43
2022-12-27T17:27:27.733Z,3.17
2022-12-27T17:30:09.618Z,5.23
2022-12-27T17:32:54.720Z,9.87
2022-12-27T17:35:25.748Z,4.67
2022-12-27T17:38:19.461Z,23.87
2022-12-27T17:41:15.382Z,10.40
2022-12-27T17:44:24.155Z,9.63
2022-12-27T17:47:11.785Z,8.73
2022-12-27T17:49:42.089Z,4.80
2022-12-27T17:52:34.741Z,5.97
2022-12-27T17:55:36.277Z,18.40
2022-12-27T17:58:09.420Z,4.10
2022-12-27T18:00:41.090Z,9.87
2022-12-27T18:03:09.172Z,16.73
2022-12-27T18:05:40.763Z,16.97
2022-12-27T18:08:17.548Z,3.87
2022-12-27T18:10:44.273Z,10.97
2022-12-27T18:13:17.695Z,4.03
2022-12-27T18:15:45.444Z,18.50
2022-12-27T18:18:18.135Z,3.53
2022-12-27T18:20:45.159Z,4.27
2022-12-27T18:23:12.054Z,7.10
2022-12-27T18:25:44.673Z,24.43
2022-12-27T18:28:17.045Z,42.28
2022-12-27T18:30:51.815Z,58.47
2022-12-27T18:33:26.589Z,107.07
2022-12-27T18:35:53.302Z,92.33
2022-12-27T18:38:28.323Z,16.07
2022-12-27T18:41:00.782Z,7.53
2022-12-27T18:43:27.410Z,2.47
2022-12-27T18:45:56.021Z,3.50
2022-12-27T18:48:22.938Z,3.17
2022-12-27T18:50:53.605Z,2.40
2022-12-27T18:53:38.410Z,3.70
2022-12-27T18:56:06.474Z,2.80
2022-12-27T18:58:34.107Z,9.87
2022-12-27T19:01:22.951Z,8.27
2022-12-27T19:04:18.958Z,11.77
2022-12-27T19:06:54.775Z,15.60
2022-12-27T19:09:24.031Z,17.00
2022-12-27T19:12:24.083Z,16.87
2022-12-27T19:14:50.856Z,10.40
2022-12-27T19:17:30.599Z,14.10
2022-12-27T19:20:02.350Z,28.33
2022-12-27T19:22:42.467Z,9.77
2022-12-27T19:25:18.633Z,20.27
2022-12-27T19:28:09.937Z,3.83
2022-12-27T19:30:43.408Z,5.77
2022-12-27T19:33:15.828Z,2.87
2022-12-27T19:35:42.974Z,4.20
2022-12-27T19:38:21.927Z,3.30
2022-12-27T19:40:53.554Z,5.13
2022-12-27T19:43:25.322Z,3.10
2022-12-27T19:45:52.443Z,2.60
2022-12-27T19:48:19.084Z,4.43
2022-12-27T19:50:48.651Z,3.60
2022-12-27T19:53:22.911Z,3.17
2022-12-27T19:55:49.488Z,3.00
2022-12-27T19:58:25.112Z,3.53
2022-12-27T20:00:51.973Z,2.90
2022-12-27T20:03:19.266Z,4.43
2022-12-27T20:06:13.025Z,3.67
2022-12-27T20:08:36.813Z,3.93
2022-12-27T20:11:05.597Z,2.60
2022-12-27T20:13:32.387Z,3.20
2022-12-27T20:16:00.354Z,3.53
2022-12-27T20:18:27.257Z,3.43
2022-12-27T20:20:54.209Z,3.10
2022-12-27T20:23:20.832Z,5.30
2022-12-27T20:25:48.885Z,3.97
2022-12-27T20:28:16.495Z,4.63
2022-12-27T20:30:44.786Z,5.77
2022-12-27T20:33:11.549Z,5.50
2022-12-27T20:35:38.237Z,11.80
2022-12-27T20:38:05.718Z,8.23
2022-12-27T20:40:32.662Z,4.67
2022-12-27T20:42:59.296Z,3.10
2022-12-27T20:45:25.900Z,9.30
2022-12-27T20:47:52.544Z,6.20
2022-12-27T20:50:19.237Z,4.07
2022-12-27T20:52:45.803Z,3.60
2022-12-27T20:55:26.472Z,6.02
2022-12-27T20:58:08.136Z,3.44
2022-12-27T21:00:34.868Z,3.07
2022-12-27T21:03:01.491Z,3.77
2022-12-27T21:05:28.183Z,3.87
2022-12-27T21:07:54.773Z,4.23
2022-12-27T21:10:21.379Z,4.20
2022-12-27T21:12:48.017Z,6.00
2022-12-27T21:15:14.620Z,3.73
2022-12-27T21:17:41.252Z,6.00
2022-12-27T21:20:11.031Z,5.60
2022-12-27T21:22:37.773Z,6.37
2022-12-27T21:25:04.660Z,13.23
2022-12-27T21:27:31.233Z,37.03
2022-12-27T21:29:57.814Z,4.70
2022-12-27T21:32:24.460Z,8.13
2022-12-27T21:34:51.108Z,3.10
2022-12-27T21:37:17.813Z,5.40
2022-12-27T21:39:44.523Z,11.47
2022-12-27T21:42:12.486Z,9.47
2022-12-27T21:44:39.183Z,5.17
2022-12-27T21:47:06.543Z,8.17
2022-12-27T21:49:34.734Z,6.70
2022-12-27T21:52:01.344Z,4.63
2022-12-27T21:54:27.921Z,3.30
2022-12-27T21:56:54.557Z,3.40
2022-12-27T21:59:21.110Z,3.57
2022-12-27T22:01:50.583Z,3.30
2022-12-27T22:04:20.112Z,3.07
2022-12-27T22:06:47.718Z,3.73
2022-12-27T22:09:14.633Z,3.27
2022-12-27T22:11:41.256Z,3.50
2022-12-27T22:14:07.919Z,2.73
2022-12-27T22:16:36.598Z,3.73
2022-12-27T22:19:06.644Z,3.47
2022-12-27T22:21:35.533Z,3.10
2022-12-27T22:24:03.279Z,4.87
2022-12-27T22:26:37.251Z,3.37
2022-12-27T22:29:04.883Z,3.70
2022-12-27T22:31:35.253Z,3.67
2022-12-27T22:34:03.365Z,3.20
2022-12-27T22:36:30.217Z,3.63
2022-12-27T22:38:58.192Z,5.03
2022-12-27T22:41:27.631Z,3.97
2022-12-27T22:44:08.641Z,3.93
2022-12-27T22:49:21.977Z,4.27
2022-12-27T22:51:48.645Z,4.17
2022-12-27T22:54:15.279Z,8.00
2022-12-27T22:56:42.559Z,9.07
2022-12-27T22:59:11.605Z,6.03
2022-12-27T23:01:39.352Z,4.23
2022-12-27T23:04:07.410Z,4.10
2022-12-27T23:06:35.533Z,4.83
2022-12-27T23:09:02.606Z,11.03
2022-12-27T23:11:31.866Z,9.43
2022-12-27T23:14:04.227Z,8.13
2022-12-27T23:16:38.874Z,8.03
2022-12-27T23:19:05.844Z,5.57
2022-12-27T23:21:32.426Z,4.00
2022-12-27T23:23:59.106Z,4.43
2022-12-27T23:26:25.813Z,4.40
2022-12-27T23:28:52.933Z,3.97
2022-12-27T23:31:21.588Z,4.80
2022-12-27T23:33:48.288Z,5.47
2022-12-27T23:36:15.153Z,5.00
2022-12-27T23:38:42.551Z,6.53
2022-12-27T23:41:13.896Z,3.80
2022-12-27T23:43:56.486Z,8.33
2022-12-27T23:46:27.563Z,6.73
2022-12-27T23:48:55.479Z,4.73
2022-12-27T23:51:22.231Z,3.73
2022-12-27T23:53:49.358Z,6.63
2022-12-27T23:56:27.028Z,4.53
2022-12-27T23:58:55.212Z,5.77
